createdAt,value
2018-03-28T00:00:41.413Z,49.20
2018-03-28T00:01:41.426Z,47.40
2018-03-28T00:02:41.444Z,52.30
2018-03-28T00:03:41.450Z,50.60
2018-03-28T00:04:41.476Z,49.50
2018-03-28T00:05:41.491Z,47.50
2018-03-28T00:06:41.507Z,50.10
2018-03-28T00:07:41.546Z,49.50
2018-03-28T00:08:41.554Z,50.50
2018-03-28T00:09:41.547Z,46.90
2018-03-28T00:10:41.572Z,49.90
2018-03-28T00:11:41.598Z,51.60
2018-03-28T00:12:41.607Z,50.50
2018-03-28T00:13:41.627Z,48.30
2018-03-28T00:14:41.643Z,53.50
2018-03-28T00:15:41.652Z,49.50
2018-03-28T00:16:41.671Z,48.90
2018-03-28T00:17:41.705Z,52.20
2018-03-28T00:18:41.694Z,51.80
2018-03-28T00:19:41.703Z,50.60
2018-03-28T00:20:41.722Z,48.20
2018-03-28T00:21:41.738Z,50.20
2018-03-28T00:22:41.751Z,53.10
2018-03-28T00:23:41.772Z,51.40
2018-03-28T00:24:41.781Z,52.50
2018-03-28T00:25:41.790Z,50.80
2018-03-28T00:26:41.835Z,48.10
2018-03-28T00:27:41.832Z,53.00
2018-03-28T00:28:41.874Z,49.70
2018-03-28T00:29:41.866Z,50.10
2018-03-28T00:30:41.880Z,49.40
2018-03-28T00:31:41.907Z,46.50
2018-03-28T00:32:41.916Z,52.50
2018-03-28T00:33:41.922Z,49.40
2018-03-28T00:34:41.937Z,51.90
2018-03-28T00:35:41.953Z,52.20
2018-03-28T00:36:41.974Z,49.90
2018-03-28T00:37:42.066Z,48.80
2018-03-28T00:38:42.042Z,49.20
2018-03-28T00:39:42.053Z,49.30
2018-03-28T00:40:42.045Z,49.00
2018-03-28T00:41:42.048Z,50.70
2018-03-28T00:42:42.057Z,52.60
2018-03-28T00:43:42.089Z,53.20
2018-03-28T00:44:42.097Z,51.10
2018-03-28T00:45:42.125Z,52.00
2018-03-28T00:46:42.121Z,52.40
2018-03-28T00:47:42.144Z,50.90
2018-03-28T00:48:42.167Z,53.30
2018-03-28T00:49:42.190Z,54.30
2018-03-28T00:50:42.189Z,52.10
2018-03-28T00:51:42.209Z,53.70
2018-03-28T00:52:42.239Z,52.30
2018-03-28T00:53:42.231Z,52.50
2018-03-28T00:54:42.260Z,53.90
2018-03-28T00:55:42.267Z,53.70
2018-03-28T00:56:42.284Z,54.10
2018-03-28T00:57:42.315Z,55.60
2018-03-28T00:58:42.347Z,53.90
2018-03-28T00:59:42.328Z,55.70
2018-03-28T01:00:42.372Z,59.10
2018-03-28T01:01:42.423Z,53.40
2018-03-28T01:02:42.388Z,55.70
2018-03-28T01:03:42.402Z,56.30
2018-03-28T01:04:42.398Z,56.50
2018-03-28T01:05:42.432Z,54.10
2018-03-28T01:06:42.449Z,59.40
2018-03-28T01:07:42.448Z,53.90
2018-03-28T01:08:42.465Z,57.40
2018-03-28T01:09:42.479Z,56.50
2018-03-28T01:10:42.499Z,52.90
2018-03-28T01:11:42.538Z,58.20
2018-03-28T01:12:42.562Z,60.10
2018-03-28T01:13:42.556Z,61.80
2018-03-28T01:14:42.574Z,58.20
2018-03-28T01:15:42.588Z,61.10
2018-03-28T01:16:42.582Z,58.90
2018-03-28T01:17:42.600Z,55.20
2018-03-28T01:18:42.624Z,55.10
2018-03-28T01:19:42.635Z,59.20
2018-03-28T01:20:42.665Z,58.10
2018-03-28T01:21:42.677Z,59.60
2018-03-28T01:22:42.715Z,56.40
2018-03-28T01:23:42.704Z,58.80
2018-03-28T01:24:42.718Z,59.00
2018-03-28T01:25:42.746Z,59.70
2018-03-28T01:26:42.757Z,58.70
2018-03-28T01:27:42.757Z,55.80
2018-03-28T01:28:42.775Z,56.70
2018-03-28T01:29:42.795Z,56.10
2018-03-28T01:30:42.817Z,58.50
2018-03-28T01:31:42.826Z,59.70
2018-03-28T01:32:42.843Z,53.80
2018-03-28T01:33:42.851Z,57.00
2018-03-28T01:34:42.867Z,54.40
2018-03-28T01:35:42.878Z,57.10
2018-03-28T01:36:42.913Z,51.50
2018-03-28T01:37:42.917Z,52.90
2018-03-28T01:38:42.934Z,54.70
2018-03-28T01:39:42.950Z,55.50
2018-03-28T01:40:42.968Z,54.60
2018-03-28T01:41:42.985Z,53.90
2018-03-28T01:42:43.006Z,54.30
2018-03-28T01:43:43.004Z,55.40
2018-03-28T01:44:43.022Z,54.40
2018-03-28T01:45:43.069Z,53.50
2018-03-28T01:46:43.062Z,49.30
2018-03-28T01:47:43.064Z,54.80
2018-03-28T01:48:43.084Z,55.70
2018-03-28T01:49:43.101Z,55.10
2018-03-28T01:50:43.116Z,52.20
2018-03-28T01:51:43.140Z,54.50
2018-03-28T01:52:43.162Z,48.10
2018-03-28T01:53:43.169Z,53.20
2018-03-28T01:54:43.186Z,54.40
2018-03-28T01:55:43.190Z,63.20
2018-03-28T01:56:43.216Z,53.80
2018-03-28T01:57:43.215Z,55.00
2018-03-28T01:58:43.251Z,51.00
2018-03-28T01:59:43.276Z,52.30
2018-03-28T02:00:43.287Z,49.40
2018-03-28T02:01:43.283Z,55.00
2018-03-28T02:02:43.297Z,52.10
2018-03-28T02:03:43.323Z,53.00
2018-03-28T02:04:43.335Z,55.90
2018-03-28T02:05:43.367Z,56.40
2018-03-28T02:06:43.381Z,52.30
2018-03-28T02:07:43.381Z,51.80
2018-03-28T02:08:43.409Z,53.00
2018-03-28T02:09:43.409Z,50.10
2018-03-28T02:10:43.423Z,53.70
2018-03-28T02:11:43.438Z,52.00
2018-03-28T02:12:43.453Z,47.80
2018-03-28T02:13:43.487Z,51.50
2018-03-28T02:14:43.503Z,54.50
2018-03-28T02:15:43.503Z,52.90
2018-03-28T02:16:43.526Z,51.80
2018-03-28T02:17:43.546Z,55.30
2018-03-28T02:18:43.551Z,49.80
2018-03-28T02:19:43.592Z,53.80
2018-03-28T02:20:43.597Z,51.40
2018-03-28T02:21:43.659Z,53.90
2018-03-28T02:22:43.618Z,52.80
2018-03-28T02:23:43.633Z,50.10
2018-03-28T02:24:43.646Z,52.30
2018-03-28T02:25:43.666Z,51.40
2018-03-28T02:26:43.680Z,49.10
2018-03-28T02:27:43.710Z,46.80
2018-03-28T02:28:43.708Z,47.90
2018-03-28T02:29:43.729Z,50.70
2018-03-28T02:30:43.744Z,51.00
2018-03-28T02:31:43.783Z,49.80
2018-03-28T02:32:43.798Z,50.60
2018-03-28T02:33:43.794Z,50.60
2018-03-28T02:34:43.821Z,50.70
2018-03-28T02:35:43.816Z,47.50
2018-03-28T02:36:43.835Z,51.80
2018-03-28T02:37:43.845Z,52.40
2018-03-28T02:38:43.875Z,51.20
2018-03-28T02:39:43.885Z,49.60
2018-03-28T02:40:43.889Z,53.00
2018-03-28T02:41:43.916Z,51.80
2018-03-28T02:42:43.938Z,48.80
2018-03-28T02:43:43.977Z,49.50
2018-03-28T02:44:43.962Z,48.80
2018-03-28T02:45:43.973Z,50.20
2018-03-28T02:46:44.005Z,50.20
2018-03-28T02:47:44.014Z,48.30
2018-03-28T02:48:44.074Z,48.50
2018-03-28T02:49:44.041Z,48.50
2018-03-28T02:50:44.075Z,49.20
2018-03-28T02:51:44.061Z,48.90
2018-03-28T02:52:44.152Z,48.20
2018-03-28T02:53:44.110Z,49.60
2018-03-28T02:54:44.112Z,44.80
2018-03-28T02:55:44.154Z,49.00
2018-03-28T02:56:44.156Z,46.90
2018-03-28T02:57:44.161Z,47.50
2018-03-28T02:58:44.187Z,47.20
2018-03-28T02:59:44.198Z,47.30
2018-03-28T03:00:44.228Z,51.10
2018-03-28T03:01:44.223Z,49.80
2018-03-28T03:02:44.240Z,52.60
2018-03-28T03:03:44.259Z,49.60
2018-03-28T03:04:44.315Z,50.20
2018-03-28T03:05:44.295Z,48.00
2018-03-28T03:06:44.325Z,48.90
2018-03-28T03:07:44.339Z,46.40
2018-03-28T03:08:44.332Z,49.80
2018-03-28T03:09:44.346Z,48.80
2018-03-28T03:10:44.385Z,48.60
2018-03-28T03:11:44.382Z,49.40
2018-03-28T03:12:44.415Z,50.20
2018-03-28T03:13:44.451Z,50.50
2018-03-28T03:14:44.424Z,48.00
2018-03-28T03:15:44.459Z,46.70
2018-03-28T03:16:44.460Z,46.60
2018-03-28T03:17:44.491Z,50.10
2018-03-28T03:18:44.502Z,51.10
2018-03-28T03:19:44.499Z,47.80
2018-03-28T03:20:44.518Z,52.10
2018-03-28T03:21:44.540Z,51.70
2018-03-28T03:22:44.553Z,51.60
2018-03-28T03:23:44.562Z,49.10
2018-03-28T03:24:44.580Z,50.80
2018-03-28T03:25:44.705Z,52.30
2018-03-28T03:26:44.648Z,53.70
2018-03-28T03:27:44.707Z,53.60
2018-03-28T03:28:44.637Z,52.70
2018-03-28T03:29:44.675Z,54.80
2018-03-28T03:30:44.670Z,54.60
2018-03-28T03:31:44.687Z,52.20
2018-03-28T03:32:44.701Z,56.20
2018-03-28T03:33:44.737Z,53.20
2018-03-28T03:34:44.730Z,58.30
2018-03-28T03:35:44.748Z,59.80
2018-03-28T03:36:44.771Z,52.90
2018-03-28T03:37:44.811Z,65.20
2018-03-28T03:38:44.793Z,60.70
2018-03-28T03:39:44.819Z,64.50
2018-03-28T03:40:44.834Z,64.40
2018-03-28T03:41:44.865Z,61.70
2018-03-28T03:42:44.898Z,62.80
2018-03-28T03:43:44.879Z,67.10
2018-03-28T03:44:44.900Z,65.70
2018-03-28T03:45:44.920Z,70.10
2018-03-28T03:46:44.926Z,71.60
2018-03-28T03:47:44.935Z,72.80
2018-03-28T03:48:44.965Z,73.90
2018-03-28T03:49:44.961Z,72.90
2018-03-28T03:50:45.001Z,75.60
2018-03-28T03:51:45.016Z,67.50
2018-03-28T03:52:45.015Z,65.80
2018-03-28T03:53:45.042Z,63.50
2018-03-28T03:54:45.061Z,65.60
2018-03-28T03:55:45.056Z,64.20
2018-03-28T03:56:45.081Z,65.60
2018-03-28T03:57:45.120Z,62.20
2018-03-28T03:58:45.143Z,58.40
2018-03-28T03:59:45.149Z,56.00
2018-03-28T04:00:45.130Z,60.90
2018-03-28T04:01:45.167Z,60.70
2018-03-28T04:02:45.181Z,63.90
2018-03-28T04:03:45.179Z,63.70
2018-03-28T04:04:45.198Z,59.80
2018-03-28T04:05:45.223Z,58.80
2018-03-28T04:06:45.252Z,60.70
2018-03-28T04:07:45.242Z,63.80
2018-03-28T04:08:45.261Z,59.90
2018-03-28T04:09:45.283Z,56.50
2018-03-28T04:10:45.308Z,54.20
2018-03-28T04:11:45.309Z,54.80
2018-03-28T04:12:45.361Z,54.10
2018-03-28T04:13:45.380Z,57.90
2018-03-28T04:14:45.417Z,55.00
2018-03-28T04:15:45.455Z,60.10
2018-03-28T04:16:45.413Z,55.40
2018-03-28T04:17:45.401Z,56.30
2018-03-28T04:18:45.443Z,60.00
2018-03-28T04:19:45.430Z,59.50
2018-03-28T04:20:45.459Z,55.80
2018-03-28T04:21:45.473Z,58.40
2018-03-28T04:22:45.524Z,58.00
2018-03-28T04:23:45.485Z,52.80
2018-03-28T04:24:45.511Z,66.70
2018-03-28T04:25:45.523Z,61.20
2018-03-28T04:26:45.570Z,54.00
2018-03-28T04:27:45.567Z,53.90
2018-03-28T04:28:45.587Z,51.10
2018-03-28T04:29:45.620Z,53.30
2018-03-28T04:30:45.616Z,58.70
2018-03-28T04:31:45.639Z,52.00
2018-03-28T04:32:45.658Z,52.30
2018-03-28T04:33:45.659Z,52.10
2018-03-28T04:34:45.664Z,53.80
2018-03-28T04:35:45.693Z,54.70
2018-03-28T04:36:45.706Z,54.60
2018-03-28T04:37:45.758Z,55.30
2018-03-28T04:38:45.732Z,57.10
2018-03-28T04:39:45.757Z,57.10
2018-03-28T04:40:45.750Z,57.10
2018-03-28T04:41:45.775Z,54.70
2018-03-28T04:42:45.784Z,58.30
2018-03-28T04:43:45.810Z,58.90
2018-03-28T04:44:45.824Z,60.10
2018-03-28T04:45:45.825Z,66.60
2018-03-28T04:46:45.841Z,60.90
2018-03-28T04:47:45.879Z,60.10
2018-03-28T04:48:45.879Z,62.30
2018-03-28T04:49:46.001Z,69.70
2018-03-28T04:50:45.907Z,68.20
2018-03-28T04:51:45.978Z,65.60
2018-03-28T04:52:45.932Z,64.60
2018-03-28T04:53:45.959Z,64.40
2018-03-28T04:54:45.995Z,66.10
2018-03-28T04:55:46.010Z,68.00
2018-03-28T04:56:46.014Z,67.30
2018-03-28T04:57:46.020Z,67.30
2018-03-28T04:58:46.038Z,68.80
2018-03-28T04:59:46.047Z,69.80
2018-03-28T05:00:46.066Z,69.70
2018-03-28T05:01:46.094Z,68.90
2018-03-28T05:02:46.091Z,67.00
2018-03-28T05:03:46.117Z,73.10
2018-03-28T05:04:46.125Z,71.00
2018-03-28T05:05:46.131Z,69.30
2018-03-28T05:06:46.156Z,78.70
2018-03-28T05:07:46.162Z,71.90
2018-03-28T05:08:46.199Z,68.10
2018-03-28T05:09:46.256Z,69.30
2018-03-28T05:10:46.223Z,74.60
2018-03-28T05:11:46.260Z,66.70
2018-03-28T05:12:46.239Z,71.10
2018-03-28T05:13:46.287Z,66.00
2018-03-28T05:14:46.278Z,66.30
2018-03-28T05:15:46.327Z,72.00
2018-03-28T05:16:46.306Z,73.10
2018-03-28T05:17:46.323Z,70.80
2018-03-28T05:18:46.334Z,64.00
2018-03-28T05:19:46.386Z,64.50
2018-03-28T05:20:46.389Z,67.70
2018-03-28T05:21:46.428Z,72.50
2018-03-28T05:22:46.419Z,60.70
2018-03-28T05:23:46.411Z,68.90
2018-03-28T05:24:46.437Z,69.80
2018-03-28T05:25:46.439Z,66.10
2018-03-28T05:26:46.491Z,67.10
2018-03-28T05:27:46.523Z,62.70
2018-03-28T05:28:46.499Z,61.30
2018-03-28T05:29:46.502Z,59.90
2018-03-28T05:30:46.519Z,58.90
2018-03-28T05:31:46.532Z,57.80
2018-03-28T05:32:46.549Z,62.70
2018-03-28T05:33:46.603Z,59.90
2018-03-28T05:34:46.593Z,58.40
2018-03-28T05:35:46.615Z,56.10
2018-03-28T05:36:46.616Z,58.00
2018-03-28T05:37:46.624Z,60.90
2018-03-28T05:38:46.644Z,59.50
2018-03-28T05:39:46.654Z,54.90
2018-03-28T05:40:46.677Z,60.30
2018-03-28T05:41:46.687Z,55.90
2018-03-28T05:42:46.735Z,61.80
2018-03-28T05:43:46.720Z,64.30
2018-03-28T05:44:46.738Z,59.40
2018-03-28T05:45:46.752Z,57.50
2018-03-28T05:46:46.782Z,55.60
2018-03-28T05:47:46.836Z,53.00
2018-03-28T05:48:46.813Z,58.10
2018-03-28T05:49:46.920Z,60.90
2018-03-28T05:50:46.869Z,60.30
2018-03-28T05:51:46.850Z,60.60
2018-03-28T05:52:46.898Z,57.80
2018-03-28T05:53:46.885Z,63.80
2018-03-28T05:54:46.888Z,68.60
2018-03-28T05:55:46.904Z,78.10
2018-03-28T05:56:46.919Z,70.40
2018-03-28T05:57:46.961Z,64.80
2018-03-28T05:58:46.950Z,64.80
2018-03-28T05:59:46.969Z,70.10
2018-03-28T06:00:46.977Z,73.90
2018-03-28T06:01:46.997Z,63.60
2018-03-28T06:02:47.003Z,62.60
2018-03-28T06:03:47.049Z,63.90
2018-03-28T06:04:47.054Z,81.60
2018-03-28T06:05:47.061Z,76.30
2018-03-28T06:06:47.071Z,76.90
2018-03-28T06:07:47.084Z,68.80
2018-03-28T06:08:47.124Z,63.20
2018-03-28T06:09:47.127Z,62.70
2018-03-28T06:10:47.144Z,62.80
2018-03-28T06:11:47.145Z,67.00
2018-03-28T06:12:47.194Z,64.10
2018-03-28T06:13:47.189Z,65.50
2018-03-28T06:14:47.191Z,64.30
2018-03-28T06:15:47.215Z,73.90
2018-03-28T06:16:47.233Z,69.00
2018-03-28T06:17:47.266Z,75.30
2018-03-28T06:18:47.270Z,66.80
2018-03-28T06:19:47.281Z,65.10
2018-03-28T06:20:47.289Z,67.60
2018-03-28T06:21:47.315Z,62.30
2018-03-28T06:22:47.333Z,60.20
2018-03-28T06:23:47.343Z,64.60
2018-03-28T06:24:47.359Z,64.20
2018-03-28T06:25:47.366Z,65.80
2018-03-28T06:26:47.385Z,72.80
2018-03-28T06:27:47.423Z,104.80
2018-03-28T06:28:47.415Z,93.60
2018-03-28T06:29:47.438Z,71.10
2018-03-28T06:30:47.454Z,82.40
2018-03-28T06:31:47.465Z,80.60
2018-03-28T06:32:47.480Z,76.00
2018-03-28T06:33:47.515Z,62.60
2018-03-28T06:34:47.508Z,60.40
2018-03-28T06:35:47.537Z,57.80
2018-03-28T06:36:47.535Z,59.00
2018-03-28T06:37:47.562Z,67.00
2018-03-28T06:38:47.576Z,66.60
2018-03-28T06:39:47.591Z,62.80
2018-03-28T06:40:47.600Z,60.80
2018-03-28T06:41:47.645Z,60.90
2018-03-28T06:42:47.642Z,59.80
2018-03-28T06:43:47.655Z,59.00
2018-03-28T06:44:47.676Z,55.80
2018-03-28T06:45:47.691Z,60.40
2018-03-28T06:46:47.708Z,66.00
2018-03-28T06:47:47.708Z,59.90
2018-03-28T06:48:47.737Z,63.40
2018-03-28T06:49:47.742Z,68.20
2018-03-28T06:50:47.769Z,58.10
2018-03-28T06:51:47.785Z,57.80
2018-03-28T06:52:47.839Z,57.80
2018-03-28T06:53:47.844Z,56.00
2018-03-28T06:54:47.819Z,57.10
2018-03-28T06:55:47.843Z,59.40
2018-03-28T06:56:47.867Z,58.30
2018-03-28T06:57:47.869Z,59.50
2018-03-28T06:58:47.885Z,60.70
2018-03-28T06:59:47.914Z,53.90
2018-03-28T07:00:47.928Z,57.50
2018-03-28T07:01:47.938Z,78.20
2018-03-28T07:02:47.960Z,59.70
2018-03-28T07:03:47.977Z,63.40
2018-03-28T07:04:47.977Z,73.30
2018-03-28T07:05:47.994Z,115.30
2018-03-28T07:06:48.016Z,106.30
2018-03-28T07:07:48.051Z,91.00
2018-03-28T07:08:48.052Z,84.40
2018-03-28T07:09:48.073Z,68.00
2018-03-28T07:10:48.069Z,63.40
2018-03-28T07:11:48.091Z,53.90
2018-03-28T07:12:48.105Z,50.30
2018-03-28T07:13:48.148Z,51.70
2018-03-28T07:14:48.145Z,50.60
2018-03-28T07:15:48.147Z,53.50
2018-03-28T07:16:48.162Z,57.10
2018-03-28T07:17:48.178Z,55.60
2018-03-28T07:18:48.216Z,53.10
2018-03-28T07:19:48.213Z,46.80
2018-03-28T07:20:48.230Z,49.70
2018-03-28T07:21:48.237Z,47.00
2018-03-28T07:22:48.285Z,48.50
2018-03-28T07:23:48.327Z,47.50
2018-03-28T07:24:48.281Z,48.00
2018-03-28T07:25:48.326Z,48.50
2018-03-28T07:26:48.334Z,44.70
2018-03-28T07:27:48.379Z,44.20
2018-03-28T07:28:48.354Z,43.60
2018-03-28T07:29:48.388Z,44.90
2018-03-28T07:30:48.381Z,46.20
2018-03-28T07:31:48.417Z,49.10
2018-03-28T07:32:48.482Z,48.90
2018-03-28T07:33:48.443Z,47.30
2018-03-28T07:34:48.448Z,50.60
2018-03-28T07:35:48.456Z,51.10
2018-03-28T07:36:48.477Z,77.00
2018-03-28T07:37:48.487Z,57.80
2018-03-28T07:38:48.515Z,48.80
2018-03-28T07:39:48.533Z,50.50
2018-03-28T07:40:48.542Z,50.40
2018-03-28T07:41:48.580Z,46.00
2018-03-28T07:42:48.569Z,51.70
2018-03-28T07:43:48.580Z,51.30
2018-03-28T07:44:48.625Z,61.70
2018-03-28T07:45:48.634Z,61.00
2018-03-28T07:46:48.634Z,49.90
2018-03-28T07:47:48.662Z,50.30
2018-03-28T07:48:48.664Z,48.10
2018-03-28T07:49:48.693Z,50.40
2018-03-28T07:50:48.700Z,52.30
2018-03-28T07:51:48.741Z,47.50
2018-03-28T07:52:48.780Z,47.10
2018-03-28T07:53:48.755Z,49.10
2018-03-28T07:54:48.800Z,50.60
2018-03-28T07:55:48.781Z,48.80
2018-03-28T07:56:48.795Z,50.80
2018-03-28T07:57:48.815Z,56.20
2018-03-28T07:58:48.847Z,48.90
2018-03-28T07:59:48.858Z,42.70
2018-03-28T08:00:48.873Z,55.30
2018-03-28T08:01:48.878Z,52.70
2018-03-28T08:02:48.901Z,50.70
2018-03-28T08:03:48.914Z,53.70
2018-03-28T08:04:48.934Z,50.60
2018-03-28T08:05:48.944Z,53.90
2018-03-28T08:06:48.955Z,52.00
2018-03-28T08:07:49.001Z,50.80
2018-03-28T08:08:48.999Z,49.20
2018-03-28T08:09:49.003Z,43.70
2018-03-28T08:10:49.088Z,45.60
2018-03-28T08:11:49.046Z,51.20
2018-03-28T08:12:49.060Z,51.40
2018-03-28T08:13:49.071Z,49.80
2018-03-28T08:14:49.086Z,52.50
2018-03-28T08:15:49.115Z,60.70
2018-03-28T08:16:49.151Z,51.10
2018-03-28T08:17:49.145Z,57.10
2018-03-28T08:18:49.160Z,57.30
2018-03-28T08:19:49.168Z,52.90
2018-03-28T08:20:49.184Z,55.20
2018-03-28T08:21:49.239Z,49.30
2018-03-28T08:22:49.222Z,50.90
2018-03-28T08:23:49.265Z,58.80
2018-03-28T08:24:49.252Z,49.00
2018-03-28T08:25:49.291Z,52.50
2018-03-28T08:26:49.323Z,53.30
2018-03-28T08:27:49.311Z,56.30
2018-03-28T08:28:49.321Z,50.80
2018-03-28T08:29:49.337Z,49.50
2018-03-28T08:30:49.349Z,51.40
2018-03-28T08:31:49.377Z,51.20
2018-03-28T08:32:49.402Z,49.10
2018-03-28T08:33:49.457Z,58.10
2018-03-28T08:34:49.429Z,51.50
2018-03-28T08:35:49.472Z,49.80
2018-03-28T08:36:49.462Z,54.30
2018-03-28T08:37:49.474Z,58.80
2018-03-28T08:38:49.479Z,51.80
2018-03-28T08:39:49.519Z,50.80
2018-03-28T08:40:49.521Z,55.60
2018-03-28T08:41:49.541Z,46.90
2018-03-28T08:42:49.596Z,46.70
2018-03-28T08:43:49.574Z,47.40
2018-03-28T08:44:49.592Z,45.10
2018-03-28T08:45:49.595Z,48.30
2018-03-28T08:46:49.648Z,46.10
2018-03-28T08:47:49.636Z,42.30
2018-03-28T08:48:49.657Z,45.20
2018-03-28T08:49:49.667Z,48.20
2018-03-28T08:50:49.701Z,41.70
2018-03-28T08:51:49.701Z,40.80
2018-03-28T08:52:49.730Z,43.20
2018-03-28T08:53:49.731Z,37.40
2018-03-28T08:54:49.762Z,37.20
2018-03-28T08:55:49.773Z,43.60
2018-03-28T08:56:49.818Z,49.60
2018-03-28T08:57:49.803Z,41.60
2018-03-28T08:58:49.822Z,42.40
2018-03-28T08:59:49.832Z,40.50
2018-03-28T09:00:49.860Z,39.40
2018-03-28T09:01:49.984Z,35.30
2018-03-28T09:02:49.958Z,37.90
2018-03-28T09:03:49.906Z,33.00
2018-03-28T09:04:49.919Z,33.40
2018-03-28T09:05:49.933Z,35.90
2018-03-28T09:06:49.960Z,32.50
2018-03-28T09:07:49.974Z,32.10
2018-03-28T09:08:49.998Z,37.30
2018-03-28T09:09:50.008Z,34.50
2018-03-28T09:10:50.031Z,40.10
2018-03-28T09:11:50.049Z,35.70
2018-03-28T09:12:50.054Z,40.80
2018-03-28T09:13:50.067Z,38.30
2018-03-28T09:14:50.096Z,38.30
2018-03-28T09:15:50.117Z,35.30
2018-03-28T09:16:50.143Z,40.60
2018-03-28T09:17:50.189Z,35.90
2018-03-28T09:18:50.158Z,35.60
2018-03-28T09:19:50.172Z,35.60
2018-03-28T09:20:50.185Z,40.30
2018-03-28T09:21:50.201Z,33.80
2018-03-28T09:22:50.235Z,38.00
2018-03-28T09:23:50.240Z,39.60
2018-03-28T09:24:50.269Z,36.50
2018-03-28T09:25:50.290Z,35.40
2018-03-28T09:26:50.312Z,32.70
2018-03-28T09:27:50.321Z,36.70
2018-03-28T09:28:50.395Z,36.70
2018-03-28T09:29:50.353Z,67.30
2018-03-28T09:30:50.361Z,51.10
2018-03-28T09:31:50.374Z,37.20
2018-03-28T09:32:50.401Z,36.30
2018-03-28T09:33:50.425Z,34.90
2018-03-28T09:34:50.445Z,38.10
2018-03-28T09:35:50.484Z,31.90
2018-03-28T09:36:50.481Z,37.10
2018-03-28T09:37:50.479Z,39.80
2018-03-28T09:38:50.506Z,34.30
2018-03-28T09:39:50.521Z,36.50
2018-03-28T09:40:50.522Z,34.40
2018-03-28T09:41:50.551Z,34.80
2018-03-28T09:42:50.573Z,32.70
2018-03-28T09:43:50.610Z,33.30
2018-03-28T09:44:50.605Z,33.70
2018-03-28T09:45:50.622Z,35.30
2018-03-28T09:46:50.632Z,35.10
2018-03-28T09:47:50.646Z,32.00
2018-03-28T09:48:50.670Z,41.00
2018-03-28T09:49:50.679Z,44.70
2018-03-28T09:50:50.699Z,31.10
2018-03-28T09:51:50.835Z,34.10
2018-03-28T09:52:50.734Z,41.70
2018-03-28T09:53:50.764Z,33.60
2018-03-28T09:54:50.766Z,40.80
2018-03-28T09:55:50.782Z,36.90
2018-03-28T09:56:50.837Z,36.20
2018-03-28T09:57:50.836Z,38.70
2018-03-28T09:58:50.843Z,68.70
2018-03-28T09:59:50.861Z,44.20
2018-03-28T10:00:50.879Z,50.90
2018-03-28T10:01:50.922Z,51.70
2018-03-28T10:02:50.923Z,44.80
2018-03-28T10:03:50.913Z,44.80
2018-03-28T10:04:50.930Z,42.20
2018-03-28T10:05:50.965Z,46.40
2018-03-28T10:06:50.977Z,41.00
2018-03-28T10:07:50.995Z,41.20
2018-03-28T10:08:51.024Z,42.70
2018-03-28T10:09:51.019Z,45.00
2018-03-28T10:10:51.112Z,41.70
2018-03-28T10:11:51.058Z,46.40
2018-03-28T10:12:51.085Z,44.70
2018-03-28T10:13:51.088Z,37.40
2018-03-28T10:14:51.110Z,40.50
2018-03-28T10:15:51.128Z,43.90
2018-03-28T10:16:51.137Z,41.80
2018-03-28T10:17:51.153Z,40.60
2018-03-28T10:18:51.169Z,43.20
2018-03-28T10:19:51.197Z,44.70
2018-03-28T10:20:51.268Z,43.10
2018-03-28T10:21:51.248Z,45.40
2018-03-28T10:22:51.264Z,38.70
2018-03-28T10:23:51.276Z,41.90
2018-03-28T10:24:51.286Z,43.90
2018-03-28T10:25:51.284Z,43.20
2018-03-28T10:26:51.319Z,49.10
2018-03-28T10:27:51.347Z,52.10
2018-03-28T10:28:51.342Z,53.60
2018-03-28T10:29:51.376Z,46.50
2018-03-28T10:30:51.372Z,44.20
2018-03-28T10:31:51.392Z,42.60
2018-03-28T10:32:51.429Z,42.00
2018-03-28T10:33:51.420Z,46.30
2018-03-28T10:34:51.453Z,40.40
2018-03-28T10:35:51.459Z,45.40
2018-03-28T10:36:51.467Z,42.80
2018-03-28T10:37:51.487Z,41.80
2018-03-28T10:38:51.513Z,44.70
2018-03-28T10:39:51.534Z,39.80
2018-03-28T10:40:51.606Z,42.50
2018-03-28T10:41:51.615Z,43.10
2018-03-28T10:42:51.580Z,35.30
2018-03-28T10:43:51.601Z,49.30
2018-03-28T10:44:51.612Z,43.90
2018-03-28T10:45:51.668Z,42.30
2018-03-28T10:46:51.672Z,36.20
2018-03-28T10:47:51.661Z,37.50
2018-03-28T10:48:51.683Z,42.00
2018-03-28T10:49:51.703Z,39.10
2018-03-28T10:50:51.716Z,41.60
2018-03-28T10:51:51.742Z,40.40
2018-03-28T10:52:51.747Z,37.90
2018-03-28T10:53:51.772Z,38.30
2018-03-28T10:54:51.780Z,39.70
2018-03-28T10:55:51.792Z,39.40
2018-03-28T10:56:51.812Z,38.80
2018-03-28T10:57:51.832Z,37.70
2018-03-28T10:58:51.860Z,41.40
2018-03-28T10:59:51.868Z,36.10
2018-03-28T11:00:51.885Z,41.80
2018-03-28T11:01:51.903Z,41.80
2018-03-28T11:02:51.926Z,40.80
2018-03-28T11:03:51.939Z,40.80
2018-03-28T11:04:51.968Z,41.70
2018-03-28T11:05:51.967Z,38.90
2018-03-28T11:06:52.006Z,37.30
2018-03-28T11:07:52.006Z,39.90
2018-03-28T11:08:52.028Z,39.30
2018-03-28T11:09:52.044Z,38.90
2018-03-28T11:10:52.076Z,38.50
2018-03-28T11:11:52.074Z,36.90
2018-03-28T11:12:52.088Z,41.90
2018-03-28T11:13:52.114Z,39.30
2018-03-28T11:14:52.150Z,37.20
2018-03-28T11:15:52.145Z,37.70
2018-03-28T11:16:52.164Z,41.70
2018-03-28T11:17:52.196Z,34.70
2018-03-28T11:18:52.205Z,40.90
2018-03-28T11:19:52.223Z,37.30
2018-03-28T11:20:52.237Z,40.10
2018-03-28T11:21:52.249Z,40.50
2018-03-28T11:22:52.303Z,40.90
2018-03-28T11:23:52.309Z,42.20
2018-03-28T11:24:52.308Z,41.00
2018-03-28T11:25:52.397Z,38.10
2018-03-28T11:26:52.346Z,41.10
2018-03-28T11:27:52.372Z,35.90
2018-03-28T11:28:52.375Z,42.10
2018-03-28T11:29:52.425Z,42.00
2018-03-28T11:30:52.417Z,42.60
2018-03-28T11:31:52.427Z,43.80
2018-03-28T11:32:52.448Z,45.20
2018-03-28T11:33:52.489Z,42.90
2018-03-28T11:34:52.480Z,43.90
2018-03-28T11:35:52.514Z,44.40
2018-03-28T11:36:52.523Z,43.60
2018-03-28T11:37:52.617Z,44.90
2018-03-28T11:38:52.567Z,44.90
2018-03-28T11:39:52.566Z,44.30
2018-03-28T11:40:52.587Z,44.30
2018-03-28T11:41:52.606Z,46.70
2018-03-28T11:42:52.620Z,42.80
2018-03-28T11:43:52.685Z,42.90
2018-03-28T11:44:52.688Z,45.50
2018-03-28T11:45:52.679Z,46.50
2018-03-28T11:46:52.709Z,46.80
2018-03-28T11:47:52.740Z,43.60
2018-03-28T11:48:52.743Z,49.10
2018-03-28T11:49:52.758Z,42.20
2018-03-28T11:50:52.775Z,51.20
2018-03-28T11:51:52.802Z,44.50
2018-03-28T11:52:52.841Z,47.40
2018-03-28T11:53:52.833Z,45.00
2018-03-28T11:54:52.840Z,42.20
2018-03-28T11:55:52.860Z,44.20
2018-03-28T11:56:52.885Z,46.60
2018-03-28T11:57:52.927Z,45.40
2018-03-28T11:58:52.921Z,47.60
2018-03-28T11:59:53.045Z,47.00
2018-03-28T12:00:52.959Z,47.80
2018-03-28T12:01:52.994Z,46.20
2018-03-28T12:02:53.042Z,47.10
2018-03-28T12:03:53.046Z,51.00
2018-03-28T12:04:53.053Z,51.20
2018-03-28T12:05:53.046Z,48.00
2018-03-28T12:06:53.068Z,46.30
2018-03-28T12:07:53.110Z,56.80
2018-03-28T12:08:53.121Z,46.70
2018-03-28T12:09:53.133Z,44.70
2018-03-28T12:10:53.230Z,44.30
2018-03-28T12:11:53.180Z,45.20
2018-03-28T12:12:53.213Z,42.80
2018-03-28T12:13:53.204Z,44.30
2018-03-28T12:14:53.224Z,46.70
2018-03-28T12:15:53.237Z,45.50
2018-03-28T12:16:53.277Z,49.90
2018-03-28T12:17:53.369Z,51.40
2018-03-28T12:18:53.294Z,52.00
2018-03-28T12:19:53.340Z,48.10
2018-03-28T12:20:53.341Z,47.80
2018-03-28T12:21:53.425Z,46.40
2018-03-28T12:22:53.373Z,43.10
2018-03-28T12:23:53.398Z,44.80
2018-03-28T12:24:53.447Z,47.10
2018-03-28T12:25:53.503Z,42.40
2018-03-28T12:26:53.454Z,46.40
2018-03-28T12:27:53.472Z,43.40
2018-03-28T12:28:53.485Z,43.80
2018-03-28T12:29:53.517Z,41.30
2018-03-28T12:30:53.549Z,41.60
2018-03-28T12:31:53.544Z,42.70
2018-03-28T12:32:53.570Z,41.60
2018-03-28T12:33:53.574Z,43.30
2018-03-28T12:34:53.609Z,46.40
2018-03-28T12:35:53.643Z,42.70
2018-03-28T12:36:53.635Z,44.40
2018-03-28T12:37:53.661Z,46.50
2018-03-28T12:38:53.751Z,44.30
2018-03-28T12:39:53.735Z,42.50
2018-03-28T12:40:53.716Z,42.10
2018-03-28T12:41:53.739Z,40.90
2018-03-28T12:42:53.760Z,43.40
2018-03-28T12:43:53.804Z,42.10
2018-03-28T12:44:53.794Z,41.90
2018-03-28T12:45:53.818Z,44.20
2018-03-28T12:46:53.842Z,45.20
2018-03-28T12:47:53.875Z,40.80
2018-03-28T12:48:53.872Z,40.90
2018-03-28T12:49:53.928Z,42.70
2018-03-28T12:50:53.906Z,43.40
2018-03-28T12:51:53.945Z,42.60
2018-03-28T12:52:53.955Z,44.60